| time (UTC) | temp F | wind direction | speed MPH | gust MPH | rain 1hr in | rain 24hr in | rain mn in | humidity % | barometer mb |
| 20260506163032 | 69 | 86 | 0.0 | 4.0 | 0.00 | 0.00 | 0.00 | 44 | 1009.2 |
| 20260506161528 | 69 | 246 | 0.0 | 0.0 | 0.00 | 0.00 | 0.00 | 41 | 1009.2 |
| 20260506160027 | 70 | 285 | 0.0 | 4.0 | 0.00 | 0.00 | 0.00 | 42 | 1009.2 |
| 20260506154526 | 70 | 286 | 0.0 | 0.0 | 0.00 | 0.00 | 0.00 | 44 | 1009.4 |
| 20260506153025 | 70 | 263 | 0.0 | 1.0 | 0.00 | 0.00 | 0.00 | 41 | 1009.5 |
| 20260506151522 | 70 | 292 | 0.0 | 3.0 | 0.00 | 0.00 | 0.00 | 40 | 1009.6 |
| 20260506150021 | 70 | 241 | 0.0 | 0.0 | 0.00 | 0.00 | 0.00 | 42 | 1009.6 |
| 20260506144519 | 69 | 257 | 0.0 | 2.0 | 0.00 | 0.00 | 0.00 | 43 | 1009.8 |
| 20260506143024 | 70 | 9 | 0.0 | 4.0 | 0.00 | 0.00 | 0.00 | 43 | 1010.0 |
| 20260506141513 | 69 | 171 | 0.0 | 0.0 | 0.00 | 0.00 | 0.00 | 43 | 1010.1 |
| 20260506140018 | 69 | 88 | 0.0 | 1.0 | 0.00 | 0.00 | 0.00 | 44 | 1010.3 |
| 20260506134510 | 69 | 211 | 0.0 | 3.0 | 0.00 | 0.00 | 0.00 | 45 | 1010.4 |
| 20260506133010 | 68 | 262 | 0.0 | 8.0 | 0.00 | 0.00 | 0.00 | 44 | 1010.5 |
| 20260506131510 | 68 | 238 | 0.0 | 0.0 | 0.00 | 0.00 | 0.00 | 46 | 1010.6 |
| 20260506130004 | 67 | 202 | 0.0 | 3.0 | 0.00 | 0.00 | 0.00 | 47 | 1010.7 |
| 20260506124503 | 67 | 210 | 0.0 | 1.0 | 0.00 | 0.00 | 0.00 | 47 | 1010.7 |
| 20260506123002 | 67 | 281 | 0.0 | 4.0 | 0.00 | 0.00 | 0.00 | 47 | 1010.9 |
| 20260506121559 | 66 | 298 | 0.0 | 4.0 | 0.00 | 0.00 | 0.00 | 49 | 1010.9 |
| 20260506120056 | 65 | 239 | 0.0 | 3.0 | 0.00 | 0.00 | 0.00 | 51 | 1011.0 |
| 20260506114603 | 65 | 272 | 0.0 | 2.0 | 0.00 | 0.00 | 0.00 | 54 | 1011.1 |
| 20260506113052 | 64 | 242 | 0.0 | 7.0 | 0.00 | 0.00 | 0.00 | 55 | 1011.2 |
| 20260506111551 | 64 | 264 | 0.0 | 7.0 | 0.00 | 0.00 | 0.00 | 54 | 1011.3 |
| 20260506110049 | 64 | 19 | 0.0 | 0.0 | 0.00 | 0.00 | 0.00 | 56 | 1011.4 |
| 20260506104609 | 64 | 186 | 0.0 | 4.0 | 0.00 | 0.00 | 0.00 | 56 | 1011.6 |
| 20260506103048 | 63 | 306 | 0.0 | 2.0 | 0.00 | 0.00 | 0.00 | 57 | 1011.7 |
| 20260506101548 | 63 | 219 | 0.0 | 2.0 | 0.00 | 0.00 | 0.00 | 58 | 1011.8 |
| 20260506100044 | 62 | 30 | 0.0 | 0.0 | 0.00 | 0.00 | 0.00 | 62 | 1011.9 |
| 20260506094539 | 60 | 36 | 0.0 | 2.0 | 0.00 | 0.00 | 0.00 | 62 | 1012.0 |
| 20260506093035 | 60 | 159 | 0.0 | 2.0 | 0.00 | 0.00 | 0.00 | 64 | 1012.0 |
| 20260506091530 | 59 | 327 | 0.0 | 3.0 | 0.00 | 0.00 | 0.00 | 65 | 1011.9 |
| 20260506090028 | 58 | 273 | 0.0 | 3.0 | 0.00 | 0.00 | 0.00 | 66 | 1011.8 |
| 20260506084524 | 57 | 261 | 0.0 | 1.0 | 0.00 | 0.00 | 0.00 | 69 | 1011.9 |
| 20260506083035 | 57 | 267 | 0.0 | 3.0 | 0.00 | 0.00 | 0.00 | 69 | 1011.8 |
| 20260506081517 | 56 | 317 | 0.0 | 0.0 | 0.00 | 0.00 | 0.00 | 69 | 1011.8 |
| 20260506073007 | 54 | 260 | 0.0 | 0.0 | 0.00 | 0.00 | 0.00 | 72 | 1011.9 |
| 20260506071504 | 53 | 213 | 0.0 | 2.0 | 0.00 | 0.00 | 0.00 | 73 | 1011.8 |
| 20260506061600 | 49 | 254 | 0.0 | 0.0 | 0.00 | 0.00 | 0.00 | 83 | 1011.7 |
| 20260506044604 | 46 | 244 | 0.0 | 0.0 | 0.00 | 0.00 | 0.00 | 87 | 1010.9 |
| 20260506043055 | 46 | 241 | 0.0 | 0.0 | 0.00 | 0.00 | 0.00 | 87 | 1010.9 |
| 20260506041550 | 46 | 261 | 0.0 | 0.0 | 0.00 | 0.00 | 0.00 | 86 | 1010.8 |
| 20260506040051 | 46 | 277 | 0.0 | 0.0 | 0.00 | 0.00 | 0.00 | 86 | 1010.8 |
| 20260506034547 | 46 | 197 | 0.0 | 0.0 | 0.00 | 0.00 | 0.00 | 86 | 1010.8 |
| 20260506033045 | 46 | 276 | 0.0 | 0.0 | 0.00 | 0.00 | 0.00 | 85 | 1010.8 |
| 20260506031546 | 46 | 273 | 0.0 | 0.0 | 0.00 | 0.00 | 0.00 | 85 | 1010.8 |
| 20260506030041 | 47 | 227 | 0.0 | 0.0 | 0.00 | 0.00 | 0.00 | 84 | 1010.6 |
| 20260506024544 | 47 | 287 | 0.0 | 0.0 | 0.00 | 0.00 | 0.00 | 83 | 1010.6 |
| 20260506023037 | 48 | 248 | 0.0 | 0.0 | 0.00 | 0.00 | 0.00 | 83 | 1010.5 |
| 20260506021550 | 48 | 247 | 0.0 | 0.0 | 0.00 | 0.00 | 0.00 | 83 | 1010.4 |
| 20260506020036 | 48 | 291 | 0.0 | 0.0 | 0.00 | 0.00 | 0.00 | 83 | 1010.4 |
| 20260506014534 | 48 | 257 | 0.0 | 0.0 | 0.00 | 0.00 | 0.00 | 82 | 1010.5 |
| 20260506013033 | 49 | 255 | 0.0 | 0.0 | 0.00 | 0.00 | 0.00 | 82 | 1010.5 |
| 20260506011532 | 49 | 249 | 0.0 | 0.0 | 0.00 | 0.00 | 0.00 | 82 | 1010.5 |
| 20260506010043 | 49 | 265 | 0.0 | 0.0 | 0.00 | 0.00 | 0.00 | 82 | 1010.4 |
| 20260506004528 | 49 | 242 | 0.0 | 1.0 | 0.00 | 0.00 | 0.00 | 81 | 1010.4 |
| 20260506003027 | 49 | 256 | 0.0 | 0.0 | 0.00 | 0.00 | 0.00 | 81 | 1010.5 |
| 20260506001525 | 50 | 256 | 0.0 | 0.0 | 0.00 | 0.00 | 0.00 | 81 | 1010.6 |
| 20260506000025 | 50 | 257 | 0.0 | 0.0 | 0.00 | 0.01 | 0.00 | 81 | 1010.7 |
| 20260505234523 | 50 | 256 | 0.0 | 0.0 | 0.00 | 0.01 | 0.00 | 82 | 1010.6 |
| 20260505233021 | 50 | 256 | 0.0 | 0.0 | 0.00 | 0.01 | 0.00 | 82 | 1010.7 |
| 20260505231526 | 51 | 256 | 0.0 | 0.0 | 0.00 | 0.01 | 0.00 | 82 | 1010.6 |
| 20260505230019 | 51 | 256 | 0.0 | 0.0 | 0.00 | 0.01 | 0.00 | 82 | 1010.6 |
| 20260505224526 | 51 | 252 | 0.0 | 0.0 | 0.00 | 0.01 | 0.00 | 82 | 1010.6 |
| 20260505223017 | 52 | 252 | 0.0 | 0.0 | 0.00 | 0.01 | 0.00 | 81 | 1010.7 |
| 20260505221511 | 53 | 252 | 0.0 | 0.0 | 0.00 | 0.01 | 0.00 | 80 | 1010.6 |
| 20260505220009 | 53 | 252 | 0.0 | 0.0 | 0.00 | 0.01 | 0.01 | 79 | 1010.6 |
| 20260505214509 | 54 | 252 | 0.0 | 0.0 | 0.00 | 0.01 | 0.01 | 77 | 1010.6 |
| 20260505213008 | 55 | 252 | 0.0 | 0.0 | 0.00 | 0.01 | 0.01 | 76 | 1010.5 |
| 20260505211523 | 55 | 263 | 0.0 | 0.0 | 0.00 | 0.01 | 0.01 | 74 | 1010.7 |
| 20260505210008 | 56 | 264 | 0.0 | 0.0 | 0.00 | 0.01 | 0.01 | 73 | 1010.7 |
| 20260505204508 | 56 | 259 | 0.0 | 0.0 | 0.00 | 0.01 | 0.01 | 73 | 1010.7 |
| 20260505203006 | 57 | 271 | 0.0 | 0.0 | 0.00 | 0.01 | 0.01 | 75 | 1010.5 |
| 20260505201508 | 57 | 160 | 0.0 | 2.0 | 0.00 | 0.01 | 0.01 | 71 | 1010.3 |
| 20260505200006 | 57 | 229 | 0.0 | 0.0 | 0.00 | 0.02 | 0.01 | 71 | 1010.0 |
| 20260505194507 | 58 | 207 | 0.0 | 0.0 | 0.00 | 0.02 | 0.01 | 75 | 1009.5 |
| 20260505193006 | 58 | 207 | 0.0 | 0.0 | 0.00 | 0.02 | 0.01 | 75 | 1009.3 |
| 20260505191504 | 58 | 217 | 0.0 | 0.0 | 0.00 | 0.02 | 0.01 | 75 | 1009.2 |
| 20260505190010 | 59 | 242 | 0.0 | 0.0 | 0.00 | 0.16 | 0.01 | 75 | 1009.0 |
| 20260505184503 | 60 | 264 | 0.0 | 0.0 | 0.00 | 0.16 | 0.01 | 73 | 1008.8 |
| 20260505183003 | 61 | 233 | 0.0 | 0.0 | 0.00 | 0.16 | 0.01 | 72 | 1008.7 |
| 20260505181502 | 61 | 232 | 0.0 | 0.0 | 0.00 | 0.16 | 0.01 | 69 | 1008.7 |
| 20260505180001 | 62 | 220 | 0.0 | 1.0 | 0.00 | 0.83 | 0.01 | 66 | 1008.8 |
| 20260505174501 | 63 | 207 | 0.0 | 0.0 | 0.00 | 0.83 | 0.01 | 60 | 1008.7 |
| 20260505173000 | 65 | 207 | 0.0 | 0.0 | 0.00 | 0.83 | 0.01 | 57 | 1008.6 |
| 20260505171600 | 65 | 266 | 0.0 | 0.0 | 0.00 | 0.83 | 0.01 | 54 | 1008.5 |
| 20260505170059 | 65 | 325 | 0.0 | 1.0 | 0.00 | 0.83 | 0.01 | 56 | 1008.6 |
| 20260505164602 | 65 | 194 | 0.0 | 0.0 | 0.00 | 0.83 | 0.01 | 62 | 1008.6 |